Time;durP1;ratioP1;P1;durP2;ratioP2;P2;SDS_P1;SDS_P2;PMS_P1;PMS_P2;Temp;Humidity;BMP_temperature;BMP_pressure;BME280_temperature;BME280_humidity;BME280_pressure;Samples;Min_cycle;Max_cycle;Signal;HPM_P1;HPM_P2
2021/09/12 00:00:33;;;;;;;10.60;3.55;;;18.60;99.90;;;;;;5108665;28;20039;-39
2021/09/12 00:02:59;;;;;;;7.68;3.50;;;18.60;99.90;;;;;;5109466;28;20016;-38
2021/09/12 00:05:24;;;;;;;6.13;3.13;;;18.60;99.90;;;;;;5110536;28;20015;-36
2021/09/12 00:07:50;;;;;;;7.97;3.70;;;18.60;99.90;;;;;;5109586;28;20047;-40
2021/09/12 00:10:16;;;;;;;5.05;3.50;;;18.60;99.90;;;;;;5109775;28;20560;-39
2021/09/12 00:12:41;;;;;;;6.78;3.72;;;18.60;99.90;;;;;;5110104;28;20050;-38
2021/09/12 00:15:10;;;;;;;7.55;4.45;;;18.60;99.90;;;;;;5109262;28;20187;-40
2021/09/12 00:17:35;;;;;;;10.27;4.72;;;18.60;99.90;;;;;;5110615;28;20016;-39
2021/09/12 00:20:01;;;;;;;6.93;5.05;;;18.60;99.90;;;;;;5113663;28;20540;-38
2021/09/12 00:22:27;;;;;;;10.32;5.95;;;18.60;99.90;;;;;;5114256;28;20027;-40
2021/09/12 00:24:53;;;;;;;5.82;4.32;;;18.60;99.90;;;;;;5113388;28;20012;-40
2021/09/12 00:27:18;;;;;;;7.45;5.15;;;18.60;99.90;;;;;;5112430;28;20019;-37
2021/09/12 00:29:44;;;;;;;10.25;5.88;;;18.60;99.90;;;;;;5113298;28;20470;-37
2021/09/12 00:32:09;;;;;;;10.82;5.45;;;18.60;99.90;;;;;;5114019;28;20059;-40
2021/09/12 00:34:35;;;;;;;11.00;5.90;;;18.60;99.90;;;;;;5114372;28;20027;-39
2021/09/12 00:37:01;;;;;;;11.77;5.53;;;18.50;99.90;;;;;;5112691;28;20031;-39
2021/09/12 00:39:29;;;;;;;10.77;5.72;;;18.50;99.90;;;;;;5113762;28;20035;-40
2021/09/12 00:41:54;;;;;;;9.02;5.45;;;18.50;99.90;;;;;;5113126;28;20386;-40
2021/09/12 00:44:23;;;;;;;9.45;5.80;;;18.50;99.90;;;;;;5113626;28;20104;-40
2021/09/12 00:46:48;;;;;;;10.20;6.70;;;18.50;99.90;;;;;;5113330;28;20110;-39
2021/09/12 00:49:15;;;;;;;9.90;5.85;;;18.50;99.90;;;;;;5113191;28;20612;-38
2021/09/12 00:51:40;;;;;;;9.85;6.55;;;18.50;99.90;;;;;;5113591;28;20024;-39
2021/09/12 00:54:08;;;;;;;9.88;6.45;;;18.50;99.90;;;;;;5111585;28;20027;-39
2021/09/12 00:56:58;;;;;;;9.48;6.68;;;18.50;99.90;;;;;;5111245;28;20016;-41
2021/09/12 00:59:24;;;;;;;12.88;7.25;;;18.50;99.90;;;;;;5099439;28;20032;-39
2021/09/12 01:01:50;;;;;;;10.68;6.50;;;18.40;99.90;;;;;;5111329;28;20035;-39
2021/09/12 01:04:16;;;;;;;12.13;5.78;;;18.40;99.90;;;;;;5111230;28;20019;-38
2021/09/12 01:06:43;;;;;;;10.93;6.50;;;18.40;99.90;;;;;;5112987;28;20359;-40
2021/09/12 01:09:08;;;;;;;8.55;5.50;;;18.40;99.90;;;;;;5113115;28;20131;-38
2021/09/12 01:11:34;;;;;;;10.00;6.28;;;18.40;99.90;;;;;;5112641;28;20434;-41
2021/09/12 01:14:00;;;;;;;12.77;7.07;;;18.40;99.90;;;;;;5110841;28;20134;-40
2021/09/12 01:16:25;;;;;;;15.38;8.30;;;18.30;99.90;;;;;;5109596;28;20058;-40
2021/09/12 01:18:51;;;;;;;10.23;7.22;;;18.30;99.90;;;;;;5109107;28;20479;-40
2021/09/12 01:21:20;;;;;;;10.40;6.70;;;18.30;99.90;;;;;;5106869;28;20051;-41
2021/09/12 01:23:46;;;;;;;10.48;6.75;;;18.30;99.90;;;;;;5110099;28;20023;-39
2021/09/12 01:26:12;;;;;;;10.05;6.60;;;18.30;99.90;;;;;;5110007;28;20031;-39
2021/09/12 01:28:39;;;;;;;10.23;6.85;;;18.30;99.90;;;;;;5109270;28;20026;-37
2021/09/12 01:31:26;;;;;;;9.85;6.72;;;18.30;99.90;;;;;;5110994;28;20027;-36
2021/09/12 01:33:52;;;;;;;9.90;5.68;;;18.30;99.90;;;;;;5111511;28;20022;-37
2021/09/12 01:36:17;;;;;;;8.60;5.85;;;18.20;99.90;;;;;;5111639;28;20102;-37
2021/09/12 01:38:44;;;;;;;9.93;6.00;;;18.20;99.90;;;;;;5110992;28;20044;-40
2021/09/12 01:41:10;;;;;;;9.43;7.10;;;18.20;99.90;;;;;;5110975;28;20032;-40
2021/09/12 01:43:35;;;;;;;10.20;7.15;;;18.20;99.90;;;;;;5111447;28;20012;-36
2021/09/12 01:46:01;;;;;;;9.27;6.20;;;18.10;99.90;;;;;;5110376;28;20051;-41
2021/09/12 01:48:26;;;;;;;12.20;7.40;;;18.10;99.90;;;;;;5111711;28;20070;-41
2021/09/12 01:50:52;;;;;;;9.52;6.82;;;18.00;99.90;;;;;;5110739;28;20031;-40
2021/09/12 01:53:23;;;;;;;12.00;7.35;;;18.00;99.90;;;;;;5110221;28;20020;-40
2021/09/12 01:55:48;;;;;;;11.73;7.40;;;17.90;99.90;;;;;;5110957;28;20031;-40
2021/09/12 01:58:14;;;;;;;10.15;6.80;;;17.90;99.90;;;;;;5111171;28;20038;-39
2021/09/12 02:00:39;;;;;;;11.50;8.35;;;17.90;99.90;;;;;;5109670;28;20028;-39
2021/09/12 02:03:05;;;;;;;11.50;6.75;;;17.80;99.90;;;;;;5109195;28;20459;-40
2021/09/12 02:05:30;;;;;;;8.75;6.20;;;17.80;99.90;;;;;;5109717;28;20027;-40
2021/09/12 02:07:56;;;;;;;8.45;6.25;;;17.70;99.90;;;;;;5108412;28;20647;-39
2021/09/12 02:10:26;;;;;;;8.70;6.78;;;17.70;99.90;;;;;;5109681;28;20015;-39
2021/09/12 02:12:54;;;;;;;7.43;5.03;;;17.60;99.90;;;;;;5109201;28;20106;-40
2021/09/12 02:15:20;;;;;;;10.05;5.82;;;17.60;99.90;;;;;;5029019;28;2320227;-41
2021/09/12 02:17:46;;;;;;;7.90;5.35;;;17.50;99.90;;;;;;5111364;28;20039;-38
2021/09/12 02:20:11;;;;;;;6.90;5.13;;;17.50;99.90;;;;;;5111537;28;20438;-40
2021/09/12 02:22:37;;;;;;;11.57;6.00;;;17.40;99.90;;;;;;5110027;28;20015;-40
2021/09/12 02:25:06;;;;;;;10.05;5.32;;;17.40;99.90;;;;;;5111967;28;20054;-39
2021/09/12 02:27:31;;;;;;;7.85;4.85;;;17.40;99.90;;;;;;5111780;28;20007;-41
2021/09/12 02:29:57;;;;;;;6.68;4.88;;;17.40;99.90;;;;;;5110584;28;20016;-41
2021/09/12 02:32:25;;;;;;;7.47;4.97;;;17.40;99.90;;;;;;5111246;28;20394;-42
2021/09/12 02:34:50;;;;;;;8.00;5.18;;;17.40;99.90;;;;;;5110306;28;20527;-42
2021/09/12 02:37:16;;;;;;;7.53;5.07;;;17.40;99.90;;;;;;5111495;28;20019;-42
2021/09/12 02:39:42;;;;;;;8.85;5.00;;;17.40;99.90;;;;;;5109145;28;20020;-40
2021/09/12 02:42:07;;;;;;;7.53;4.57;;;17.30;99.90;;;;;;5109305;28;20051;-40
2021/09/12 02:44:33;;;;;;;8.07;4.53;;;17.30;99.90;;;;;;5111691;28;20099;-41
2021/09/12 02:46:59;;;;;;;6.35;3.55;;;17.30;99.90;;;;;;5111066;28;20030;-42
2021/09/12 02:49:24;;;;;;;8.32;4.20;;;17.30;99.90;;;;;;5110960;28;20016;-38
2021/09/12 02:51:49;;;;;;;5.28;4.18;;;17.20;99.90;;;;;;5111091;28;20459;-43
2021/09/12 02:54:15;;;;;;;5.47;4.05;;;17.20;99.90;;;;;;5110725;28;20023;-37
2021/09/12 02:56:41;;;;;;;6.90;3.90;;;17.20;99.90;;;;;;5110506;28;20027;-39
2021/09/12 02:59:06;;;;;;;6.43;4.20;;;17.10;99.90;;;;;;5111320;28;20074;-39
2021/09/12 03:01:32;;;;;;;8.43;3.97;;;17.10;99.90;;;;;;5110933;28;20069;-32
2021/09/12 03:03:57;;;;;;;8.15;4.15;;;17.00;99.90;;;;;;5109550;28;20490;-39
2021/09/12 03:06:23;;;;;;;8.85;4.55;;;17.00;99.90;;;;;;5110880;28;20110;-38
2021/09/12 03:08:48;;;;;;;8.20;4.72;;;16.90;99.90;;;;;;5110022;28;20061;-39
2021/09/12 03:11:13;;;;;;;6.00;4.57;;;16.90;99.90;;;;;;5108463;28;20057;-40
2021/09/12 03:13:39;;;;;;;10.55;4.93;;;16.80;99.90;;;;;;5108589;28;20539;-39
2021/09/12 03:16:05;;;;;;;6.18;4.32;;;16.80;99.90;;;;;;5109989;28;20429;-37
2021/09/12 03:18:30;;;;;;;8.60;4.90;;;16.80;99.90;;;;;;5107895;28;20020;-39
2021/09/12 03:20:56;;;;;;;7.25;5.30;;;16.80;99.90;;;;;;5108949;28;20035;-39
2021/09/12 03:23:21;;;;;;;8.00;4.63;;;16.70;99.90;;;;;;5109785;28;20037;-38
2021/09/12 03:25:49;;;;;;;7.80;4.95;;;16.70;99.90;;;;;;5109171;28;20024;-38
2021/09/12 03:28:15;;;;;;;8.15;5.07;;;16.60;99.90;;;;;;5110666;28;20024;-39
2021/09/12 03:30:41;;;;;;;10.23;5.00;;;16.60;99.90;;;;;;5109117;28;20364;-39
2021/09/12 03:33:06;;;;;;;5.90;5.20;;;16.60;99.90;;;;;;5108633;28;20360;-39
2021/09/12 03:35:32;;;;;;;8.15;5.60;;;16.50;99.90;;;;;;5110828;28;20563;-40
2021/09/12 03:37:57;;;;;;;9.95;6.30;;;16.40;99.90;;;;;;5110082;28;20024;-36
2021/09/12 03:40:23;;;;;;;9.23;5.80;;;16.40;99.90;;;;;;5109681;28;20027;-38
2021/09/12 03:42:48;;;;;;;10.45;5.45;;;16.30;99.90;;;;;;5109755;28;20031;-39
2021/09/12 03:45:16;;;;;;;8.07;5.20;;;16.30;99.90;;;;;;5109672;28;20015;-39
2021/09/12 03:47:42;;;;;;;9.65;6.00;;;16.30;99.90;;;;;;5109848;28;20019;-39
2021/09/12 03:50:08;;;;;;;10.82;5.80;;;16.20;99.90;;;;;;5109365;28;20402;-36
2021/09/12 03:52:33;;;;;;;8.20;5.72;;;16.20;99.90;;;;;;5109586;28;20023;-36
2021/09/12 03:54:59;;;;;;;8.95;5.65;;;16.20;99.90;;;;;;5109892;28;20034;-37
2021/09/12 03:57:24;;;;;;;8.18;5.78;;;16.10;99.90;;;;;;5110065;28;20056;-39
2021/09/12 03:59:51;;;;;;;8.90;5.70;;;16.10;99.90;;;;;;5108824;28;20027;-39
2021/09/12 04:02:18;;;;;;;9.45;5.85;;;16.10;99.90;;;;;;5110300;28;20487;-37
2021/09/12 04:04:43;;;;;;;7.63;5.57;;;16.00;99.90;;;;;;5109739;28;20557;-41
2021/09/12 04:07:09;;;;;;;9.90;5.50;;;16.00;99.90;;;;;;5109399;28;20026;-40
2021/09/12 04:09:34;;;;;;;7.15;5.63;;;16.00;99.90;;;;;;5109780;28;20035;-38
2021/09/12 04:12:00;;;;;;;7.35;5.40;;;15.90;99.90;;;;;;5109049;28;20038;-40
2021/09/12 04:14:25;;;;;;;9.07;5.53;;;15.90;99.90;;;;;;5109797;28;20410;-39
2021/09/12 04:16:51;;;;;;;9.65;5.82;;;15.90;99.90;;;;;;5108684;28;20028;-38
2021/09/12 04:19:16;;;;;;;11.55;5.97;;;15.80;99.90;;;;;;5109750;28;20028;-36
2021/09/12 04:21:42;;;;;;;13.48;6.82;;;15.80;99.90;;;;;;5107236;28;20032;-39
2021/09/12 04:24:07;;;;;;;8.15;5.63;;;15.80;99.90;;;;;;5108262;28;20043;-37
2021/09/12 04:26:33;;;;;;;13.60;7.25;;;15.70;99.90;;;;;;5108996;28;20113;-34
2021/09/12 04:28:59;;;;;;;11.18;6.50;;;15.60;99.90;;;;;;5107211;28;20371;-40
2021/09/12 04:31:24;;;;;;;11.15;7.30;;;15.60;99.90;;;;;;5108871;28;20463;-39
2021/09/12 04:33:50;;;;;;;9.38;7.07;;;15.60;99.90;;;;;;5109236;28;20031;-40
2021/09/12 04:36:15;;;;;;;10.18;6.82;;;15.60;99.90;;;;;;5109307;28;20023;-39
2021/09/12 04:38:41;;;;;;;11.90;6.75;;;15.50;99.90;;;;;;5108978;28;20043;-39
2021/09/12 04:41:07;;;;;;;11.88;7.68;;;15.50;99.90;;;;;;5108814;28;20043;-39
2021/09/12 04:43:33;;;;;;;8.15;5.82;;;15.50;99.90;;;;;;5109490;28;20019;-38
2021/09/12 04:45:59;;;;;;;9.40;6.50;;;15.50;99.90;;;;;;5108583;28;20051;-39
2021/09/12 04:48:27;;;;;;;11.27;6.63;;;15.50;99.90;;;;;;5108051;28;20035;-37
2021/09/12 04:50:54;;;;;;;12.07;6.93;;;15.50;99.90;;;;;;5107976;28;20424;-38
2021/09/12 04:53:19;;;;;;;10.18;6.63;;;15.40;99.90;;;;;;5107969;28;20019;-36
2021/09/12 04:55:45;;;;;;;9.43;6.57;;;15.40;99.90;;;;;;5107587;28;20065;-41
2021/09/12 04:58:13;;;;;;;9.65;6.30;;;15.40;99.90;;;;;;5109352;28;20501;-40
2021/09/12 05:00:39;;;;;;;11.27;7.63;;;15.30;99.90;;;;;;5109345;28;20036;-40
2021/09/12 05:03:05;;;;;;;12.90;7.75;;;15.30;99.90;;;;;;5108846;28;20012;-38
2021/09/12 05:05:30;;;;;;;9.65;7.05;;;15.30;99.90;;;;;;5113637;28;20046;-40
2021/09/12 05:07:56;;;;;;;12.15;8.10;;;15.20;99.90;;;;;;5113032;28;20026;-38
2021/09/12 05:10:22;;;;;;;10.95;8.02;;;15.20;99.90;;;;;;5112844;28;20107;-40
2021/09/12 05:12:51;;;;;;;12.02;8.60;;;15.20;99.90;;;;;;5112853;28;20413;-41
2021/09/12 05:15:16;;;;;;;16.35;9.15;;;15.10;99.90;;;;;;5113027;28;20179;-39
2021/09/12 05:17:42;;;;;;;13.45;8.80;;;15.10;99.90;;;;;;5100436;28;20106;-39
2021/09/12 05:20:08;;;;;;;11.10;7.15;;;15.00;99.90;;;;;;5107663;28;20082;-38
2021/09/12 05:22:38;;;;;;;11.95;8.23;;;15.00;99.90;;;;;;5112659;28;20081;-39
2021/09/12 05:25:04;;;;;;;10.23;7.75;;;15.00;99.90;;;;;;5105066;28;20054;-38
2021/09/12 05:27:30;;;;;;;10.00;7.38;;;15.00;99.90;;;;;;5112621;28;20356;-37
2021/09/12 05:29:55;;;;;;;10.23;7.80;;;15.00;99.90;;;;;;5111042;28;20027;-41
2021/09/12 05:32:21;;;;;;;11.00;7.05;;;15.00;99.90;;;;;;5110843;28;20016;-39
2021/09/12 05:34:46;;;;;;;11.52;7.40;;;15.00;99.90;;;;;;5111108;28;20031;-36
2021/09/12 05:37:12;;;;;;;10.93;7.95;;;15.00;99.90;;;;;;5112374;28;20424;-39
2021/09/12 05:39:38;;;;;;;12.73;8.07;;;15.00;99.90;;;;;;5110731;28;20113;-40
2021/09/12 05:42:04;;;;;;;11.27;7.93;;;15.00;99.90;;;;;;5112015;28;20114;-40
2021/09/12 05:44:30;;;;;;;9.68;7.78;;;15.00;99.90;;;;;;5112888;28;20123;-39
2021/09/12 05:46:56;;;;;;;10.73;7.55;;;15.00;99.90;;;;;;5111749;28;20035;-39
2021/09/12 05:49:22;;;;;;;13.50;7.93;;;15.00;99.90;;;;;;5111799;28;20106;-41
2021/09/12 05:51:48;;;;;;;11.57;8.40;;;15.00;99.90;;;;;;5110118;28;20107;-36
2021/09/12 05:54:13;;;;;;;9.82;7.43;;;15.00;99.90;;;;;;5111101;28;20076;-41
2021/09/12 05:56:39;;;;;;;11.00;7.80;;;15.00;99.90;;;;;;5112689;28;20024;-40
2021/09/12 05:59:10;;;;;;;11.68;8.77;;;15.00;99.90;;;;;;5111175;28;20019;-40
2021/09/12 06:01:36;;;;;;;10.93;8.27;;;15.10;99.90;;;;;;5112653;28;20050;-36
2021/09/12 06:04:02;;;;;;;11.73;8.77;;;15.10;99.90;;;;;;5112022;28;20405;-38
2021/09/12 06:06:27;;;;;;;10.60;8.23;;;15.20;99.90;;;;;;5111805;28;20019;-39
2021/09/12 06:08:53;;;;;;;13.43;8.48;;;15.20;99.90;;;;;;5112161;28;20023;-40
2021/09/12 06:11:18;;;;;;;11.90;8.52;;;15.20;99.90;;;;;;5111752;28;20031;-38
2021/09/12 06:13:44;;;;;;;11.07;8.40;;;15.20;99.90;;;;;;5111289;28;20032;-40
2021/09/12 06:16:09;;;;;;;12.60;9.45;;;15.30;99.90;;;;;;5109857;28;20032;-39
2021/09/12 06:18:35;;;;;;;11.05;8.02;;;15.30;99.90;;;;;;5111953;28;20015;-39
2021/09/12 06:21:03;;;;;;;12.82;8.93;;;15.20;99.90;;;;;;5110652;28;20032;-41
2021/09/12 06:23:30;;;;;;;15.85;10.98;;;15.30;99.90;;;;;;5112361;28;20027;-39
2021/09/12 06:25:55;;;;;;;12.73;10.25;;;15.20;99.90;;;;;;5111086;28;20023;-36
2021/09/12 06:28:21;;;;;;;18.17;10.57;;;15.20;99.90;;;;;;5112037;28;20028;-39
2021/09/12 06:30:46;;;;;;;16.48;10.82;;;15.20;99.90;;;;;;5111037;28;20028;-39
2021/09/12 06:33:12;;;;;;;15.48;10.23;;;15.20;99.90;;;;;;5112186;28;20020;-38
2021/09/12 06:35:37;;;;;;;14.50;10.00;;;15.20;99.90;;;;;;5110209;28;20019;-39
2021/09/12 06:38:09;;;;;;;12.65;10.63;;;15.30;99.90;;;;;;5109958;28;20050;-36
2021/09/12 06:40:38;;;;;;;17.92;11.00;;;15.30;99.90;;;;;;5109826;28;20074;-39
2021/09/12 06:43:04;;;;;;;15.95;9.85;;;15.40;99.90;;;;;;5109721;28;20157;-39
2021/09/12 06:45:30;;;;;;;15.85;11.18;;;15.40;99.90;;;;;;5110195;28;20111;-38
2021/09/12 06:47:56;;;;;;;12.10;10.00;;;15.40;99.90;;;;;;5108682;28;20547;-39
2021/09/12 06:50:25;;;;;;;13.48;9.05;;;15.50;99.90;;;;;;5110763;28;20349;-39
2021/09/12 06:52:51;;;;;;;17.55;11.32;;;15.50;99.90;;;;;;5109037;28;20024;-40
2021/09/12 06:55:17;;;;;;;13.85;10.68;;;15.60;99.90;;;;;;5110189;28;20428;-38
2021/09/12 06:57:43;;;;;;;12.00;10.10;;;15.60;99.90;;;;;;5109271;28;20474;-37
2021/09/12 07:00:10;;;;;;;11.30;9.02;;;15.60;99.90;;;;;;5108912;28;20108;-39
2021/09/12 07:02:36;;;;;;;12.98;10.98;;;15.60;99.90;;;;;;5109007;28;20027;-39
2021/09/12 07:05:04;;;;;;;17.20;10.20;;;15.70;99.90;;;;;;5109552;28;20345;-40
2021/09/12 07:07:30;;;;;;;14.00;9.70;;;15.70;99.90;;;;;;5109355;28;20023;-40
2021/09/12 07:09:58;;;;;;;12.27;8.80;;;15.70;99.90;;;;;;5108738;28;20073;-40
2021/09/12 07:12:24;;;;;;;14.75;9.70;;;15.80;99.90;;;;;;5109219;28;20020;-38
2021/09/12 07:14:49;;;;;;;14.40;10.20;;;15.80;99.90;;;;;;5108818;28;20048;-39
2021/09/12 07:17:15;;;;;;;12.20;9.45;;;15.90;99.90;;;;;;5110632;28;20394;-39
2021/09/12 07:19:40;;;;;;;13.90;8.98;;;15.90;99.90;;;;;;5110771;28;20063;-40
2021/09/12 07:22:06;;;;;;;13.50;8.65;;;15.90;99.90;;;;;;5110644;28;20039;-36
2021/09/12 07:24:32;;;;;;;13.38;8.48;;;15.90;99.90;;;;;;5110481;28;20489;-40
2021/09/12 07:27:07;;;;;;;8.25;6.40;;;16.00;99.90;;;;;;5110333;28;20093;-40
2021/09/12 07:29:33;;;;;;;9.60;7.38;;;16.10;99.90;;;;;;5111398;28;20463;-36
2021/09/12 07:31:59;;;;;;;11.95;8.20;;;16.10;99.90;;;;;;5080009;28;20062;-40
2021/09/12 07:34:25;;;;;;;14.48;9.45;;;16.20;99.90;;;;;;5099472;28;20484;-39
2021/09/12 07:36:51;;;;;;;10.02;6.75;;;16.20;99.90;;;;;;5109862;28;20489;-38
2021/09/12 07:39:19;;;;;;;11.18;7.10;;;16.30;99.90;;;;;;5101781;28;20528;-40
2021/09/12 07:41:44;;;;;;;13.23;8.05;;;16.30;99.90;;;;;;5083723;28;20028;-39
2021/09/12 07:44:10;;;;;;;16.08;9.05;;;16.40;99.90;;;;;;5101232;28;20087;-38
2021/09/12 07:46:35;;;;;;;11.45;7.85;;;16.40;99.90;;;;;;5108659;28;20055;-34
2021/09/12 07:49:01;;;;;;;12.65;8.35;;;16.50;99.90;;;;;;5107080;28;20016;-40
2021/09/12 07:51:26;;;;;;;13.80;9.73;;;16.50;99.90;;;;;;5107762;28;20038;-38
2021/09/12 07:53:52;;;;;;;13.30;8.73;;;16.50;99.90;;;;;;5108320;28;20020;-40
2021/09/12 07:56:17;;;;;;;10.40;7.03;;;16.50;99.90;;;;;;5109138;28;20397;-39
2021/09/12 07:58:43;;;;;;;12.15;8.60;;;16.60;99.90;;;;;;5107633;28;20537;-39
2021/09/12 08:01:09;;;;;;;13.82;8.32;;;16.60;99.90;;;;;;5109528;28;20091;-42
2021/09/12 08:03:35;;;;;;;12.75;8.80;;;16.70;99.90;;;;;;5110321;28;20022;-39
2021/09/12 08:06:00;;;;;;;13.85;9.27;;;16.80;99.90;;;;;;5108878;28;20031;-38
2021/09/12 08:08:26;;;;;;;17.38;9.73;;;16.80;99.90;;;;;;5110525;28;20016;-41
2021/09/12 08:10:51;;;;;;;15.52;9.00;;;16.90;99.90;;;;;;5108740;28;20035;-40
2021/09/12 08:13:17;;;;;;;11.98;8.75;;;16.90;99.90;;;;;;5109607;28;20489;-38
2021/09/12 08:15:42;;;;;;;15.60;9.60;;;17.00;99.90;;;;;;5109046;28;20031;-40
2021/09/12 08:18:08;;;;;;;13.98;9.32;;;17.10;99.90;;;;;;5110057;28;20012;-39
2021/09/12 08:20:34;;;;;;;11.98;7.85;;;17.20;99.90;;;;;;5109354;28;20036;-40
2021/09/12 08:22:59;;;;;;;13.18;8.30;;;17.20;99.90;;;;;;5109366;28;20059;-39
2021/09/12 08:25:25;;;;;;;13.50;8.55;;;17.30;99.90;;;;;;5109605;28;20019;-40
2021/09/12 08:27:51;;;;;;;11.00;7.90;;;17.40;99.90;;;;;;5109747;28;20020;-37
2021/09/12 08:30:16;;;;;;;11.27;8.63;;;17.50;99.90;;;;;;5109904;28;20047;-40
2021/09/12 08:32:45;;;;;;;12.45;8.85;;;17.50;99.90;;;;;;5079567;28;20060;-39
2021/09/12 08:35:11;;;;;;;13.30;9.43;;;17.60;99.90;;;;;;5092410;28;20389;-40
2021/09/12 08:37:37;;;;;;;13.20;9.23;;;17.70;99.90;;;;;;5109905;28;20023;-39
2021/09/12 08:40:03;;;;;;;13.23;8.15;;;17.70;99.90;;;;;;5112346;28;20020;-40
2021/09/12 08:42:36;;;;;;;13.80;9.70;;;17.70;99.90;;;;;;5113502;28;20470;-37
2021/09/12 08:45:03;;;;;;;15.38;9.02;;;17.80;99.90;;;;;;5113953;28;20030;-39
2021/09/12 08:47:29;;;;;;;11.32;8.85;;;17.90;99.90;;;;;;5113511;28;20062;-36
2021/09/12 08:49:54;;;;;;;16.67;9.95;;;18.10;99.90;;;;;;5111670;28;20019;-37
2021/09/12 08:52:20;;;;;;;13.35;9.02;;;18.30;99.90;;;;;;5113668;28;20111;-38
2021/09/12 08:54:46;;;;;;;9.15;7.65;;;18.50;99.90;;;;;;5111332;28;20024;-36
2021/09/12 08:57:11;;;;;;;14.68;8.73;;;18.60;99.90;;;;;;5112022;28;20016;-38
2021/09/12 08:59:37;;;;;;;13.98;8.75;;;18.70;99.90;;;;;;5112030;28;20030;-37
2021/09/12 09:02:05;;;;;;;16.45;10.63;;;18.80;99.90;;;;;;5093393;28;20080;-38
2021/09/12 09:04:33;;;;;;;11.48;8.85;;;18.80;99.90;;;;;;5092242;28;20334;-40
2021/09/12 09:07:05;;;;;;;13.77;8.65;;;18.90;99.90;;;;;;5086381;28;20039;-39
2021/09/12 09:09:50;;;;;;;15.38;9.63;;;18.90;99.90;;;;;;5094875;28;20028;-40
2021/09/12 09:12:20;;;;;;;14.57;10.10;;;19.10;99.90;;;;;;5091940;28;20031;-37
2021/09/12 09:15:03;;;;;;;15.95;9.68;;;19.20;99.90;;;;;;5079262;28;20118;-35
2021/09/12 09:17:29;;;;;;;14.85;8.60;;;19.30;99.90;;;;;;5088683;28;20049;-39
2021/09/12 09:19:55;;;;;;;13.65;10.07;;;19.40;99.90;;;;;;5086381;28;20028;-39
2021/09/12 09:22:36;;;;;;;10.52;8.45;;;19.40;99.90;;;;;;5096772;28;20044;-37
2021/09/12 09:25:18;;;;;;;13.55;8.80;;;19.50;99.90;;;;;;5112909;28;20038;-38
2021/09/12 09:28:03;;;;;;;14.20;9.43;;;19.60;99.90;;;;;;5112759;28;20020;-36
2021/09/12 09:30:31;;;;;;;14.35;9.30;;;19.60;99.90;;;;;;5103478;28;20028;-39
2021/09/12 09:33:19;;;;;;;11.55;8.00;;;19.50;99.90;;;;;;5111193;28;20032;-35
2021/09/12 09:36:04;;;;;;;14.48;9.18;;;19.50;99.90;;;;;;5112351;28;20027;-38
2021/09/12 09:38:38;;;;;;;13.32;8.40;;;19.50;99.90;;;;;;5104791;28;20062;-35
2021/09/12 09:41:10;;;;;;;12.13;8.05;;;19.60;99.90;;;;;;5112814;28;20382;-43
2021/09/12 09:43:53;;;;;;;10.77;8.00;;;19.70;99.90;;;;;;5110011;28;20011;-41
2021/09/12 09:46:32;;;;;;;11.48;7.70;;;19.90;99.90;;;;;;5112647;28;20028;-39
2021/09/12 09:49:20;;;;;;;9.75;7.53;;;20.00;99.90;;;;;;5107435;28;20034;-35
2021/09/12 09:51:52;;;;;;;9.55;6.80;;;20.10;99.90;;;;;;5111581;28;20051;-41
2021/09/12 09:54:19;;;;;;;9.48;6.95;;;20.20;99.90;;;;;;5112953;28;20058;-40
2021/09/12 09:56:46;;;;;;;10.88;6.50;;;20.30;99.90;;;;;;5112151;28;20024;-40
2021/09/12 09:59:14;;;;;;;11.13;7.05;;;20.50;99.90;;;;;;5104446;28;20490;-41
2021/09/12 10:01:50;;;;;;;12.68;7.18;;;20.60;99.90;;;;;;5111911;28;20043;-40
2021/09/12 10:04:26;;;;;;;8.57;7.00;;;20.70;99.90;;;;;;5109314;28;20102;-42
2021/09/12 10:06:53;;;;;;;12.57;7.95;;;20.80;99.90;;;;;;5109843;28;20490;-40
2021/09/12 10:09:19;;;;;;;12.27;8.05;;;20.80;99.90;;;;;;5110259;28;20106;-39
2021/09/12 10:12:04;;;;;;;11.80;8.07;;;20.70;99.90;;;;;;5110718;28;20102;-42
2021/09/12 10:14:49;;;;;;;12.75;8.13;;;20.80;99.90;;;;;;5110806;28;20035;-40
2021/09/12 10:17:20;;;;;;;10.40;7.25;;;20.80;99.90;;;;;;5112206;28;20049;-42
2021/09/12 10:19:46;;;;;;;8.57;7.45;;;20.70;99.90;;;;;;5109374;28;20036;-40
2021/09/12 10:22:16;;;;;;;14.50;9.15;;;20.70;99.90;;;;;;5112262;28;20094;-43
2021/09/12 10:25:00;;;;;;;12.85;8.95;;;20.70;99.90;;;;;;5110948;28;20023;-41
2021/09/12 10:27:44;;;;;;;10.88;7.90;;;20.70;99.90;;;;;;5110925;28;20106;-38
2021/09/12 10:30:21;;;;;;;11.07;8.63;;;20.70;99.90;;;;;;5109417;28;20034;-43
2021/09/12 10:32:50;;;;;;;16.35;10.27;;;20.70;99.90;;;;;;5111974;28;20028;-38
2021/09/12 10:35:23;;;;;;;13.52;9.75;;;20.80;99.90;;;;;;5111467;28;20409;-40
2021/09/12 10:37:57;;;;;;;11.50;8.30;;;20.70;99.90;;;;;;5111132;28;20405;-42
2021/09/12 10:40:23;;;;;;;11.68;8.40;;;20.70;99.90;;;;;;5111709;28;20038;-41
2021/09/12 10:42:49;;;;;;;11.82;8.50;;;20.60;99.90;;;;;;5111513;28;20426;-42
2021/09/12 10:45:23;;;;;;;11.43;8.60;;;20.60;99.90;;;;;;5111684;28;20012;-38
2021/09/12 10:47:49;;;;;;;11.63;8.80;;;20.70;99.90;;;;;;5111125;28;20028;-43
2021/09/12 10:50:36;;;;;;;14.10;9.35;;;20.70;99.90;;;;;;5111159;28;20047;-42
2021/09/12 10:53:02;;;;;;;10.18;9.02;;;20.70;99.90;;;;;;5071062;28;20032;-39
2021/09/12 10:55:49;;;;;;;15.35;9.23;;;20.60;99.90;;;;;;5104542;28;20016;-39
2021/09/12 10:58:17;;;;;;;10.85;8.25;;;20.70;99.90;;;;;;5111281;28;20061;-38
2021/09/12 11:00:45;;;;;;;15.00;10.23;;;20.60;99.90;;;;;;5110752;28;20024;-39
2021/09/12 11:03:15;;;;;;;14.68;10.48;;;20.60;99.90;;;;;;5110225;28;20024;-39
2021/09/12 11:05:41;;;;;;;15.48;11.52;;;20.60;99.90;;;;;;5110856;28;20028;-39
2021/09/12 11:08:12;;;;;;;15.70;10.73;;;20.60;99.90;;;;;;5110546;28;20035;-42
2021/09/12 11:10:40;;;;;;;14.47;10.03;;;20.60;99.90;;;;;;5110363;28;20027;-40
2021/09/12 11:13:06;;;;;;;14.00;10.30;;;20.60;99.90;;;;;;5109486;28;20280;-41
2021/09/12 11:15:32;;;;;;;16.55;10.30;;;20.70;99.90;;;;;;5108316;28;20216;-37
2021/09/12 11:17:58;;;;;;;17.38;12.75;;;20.70;99.90;;;;;;5110022;28;20030;-42
2021/09/12 11:20:44;;;;;;;20.27;11.48;;;20.70;99.90;;;;;;5109326;28;20114;-39
2021/09/12 11:23:10;;;;;;;17.67;12.05;;;20.90;99.90;;;;;;5108649;28;20115;-42
2021/09/12 11:25:37;;;;;;;19.55;13.60;;;21.10;99.90;;;;;;5109073;28;20012;-42
2021/09/12 11:28:07;;;;;;;19.70;13.73;;;21.10;99.90;;;;;;5110920;28;20132;-38
2021/09/12 11:30:34;;;;;;;18.67;12.80;;;21.00;99.90;;;;;;5110427;28;20026;-40
2021/09/12 11:33:01;;;;;;;16.20;11.70;;;20.90;99.90;;;;;;5110274;28;20166;-38
2021/09/12 11:35:27;;;;;;;16.13;12.02;;;20.90;99.90;;;;;;5110200;28;20027;-38
2021/09/12 11:38:10;;;;;;;17.35;12.13;;;20.90;99.90;;;;;;5109517;28;20042;-39
2021/09/12 11:40:36;;;;;;;16.08;12.57;;;20.90;99.90;;;;;;5109823;28;20110;-41
2021/09/12 11:43:11;;;;;;;14.40;11.10;;;21.10;99.90;;;;;;5110375;28;20028;-43
2021/09/12 11:45:37;;;;;;;17.30;11.95;;;21.10;99.90;;;;;;5109963;28;20024;-36
2021/09/12 11:48:03;;;;;;;16.58;11.90;;;21.20;99.90;;;;;;5110694;28;20016;-43
2021/09/12 11:50:28;;;;;;;17.92;12.45;;;21.20;99.90;;;;;;5109986;28;20110;-39
2021/09/12 11:52:54;;;;;;;17.70;12.43;;;21.20;99.90;;;;;;5109302;28;20019;-38
2021/09/12 11:55:23;;;;;;;19.17;13.52;;;21.10;99.90;;;;;;5110567;28;20027;-37
2021/09/12 11:58:06;;;;;;;15.50;11.82;;;21.10;99.90;;;;;;5109250;28;20421;-37
2021/09/12 12:00:36;;;;;;;16.95;14.00;;;21.10;99.90;;;;;;5107545;28;20059;-40
2021/09/12 12:03:02;;;;;;;14.98;12.10;;;21.10;99.90;;;;;;5108132;28;20118;-38
2021/09/12 12:05:30;;;;;;;13.80;11.63;;;21.10;99.90;;;;;;5107701;28;20023;-38
2021/09/12 12:08:03;;;;;;;19.48;13.98;;;21.20;99.90;;;;;;5107863;28;20201;-39
2021/09/12 12:10:31;;;;;;;18.17;15.15;;;21.30;99.90;;;;;;5109636;28;20024;-36
2021/09/12 12:12:57;;;;;;;14.55;11.93;;;21.40;99.90;;;;;;5109637;28;20030;-38
2021/09/12 12:15:40;;;;;;;14.70;13.00;;;21.40;99.90;;;;;;5114458;28;20043;-37
2021/09/12 12:18:13;;;;;;;16.27;13.45;;;21.40;99.90;;;;;;5113845;28;20534;-41
2021/09/12 12:20:40;;;;;;;20.48;15.15;;;21.50;99.90;;;;;;5071846;28;20037;-40
2021/09/12 12:23:16;;;;;;;23.15;16.65;;;21.60;99.90;;;;;;5100123;28;20378;-40
2021/09/12 12:25:42;;;;;;;19.55;14.98;;;21.60;99.90;;;;;;5111649;28;20024;-42
2021/09/12 12:28:27;;;;;;;17.98;14.52;;;21.60;99.90;;;;;;5112695;28;20024;-39
2021/09/12 12:31:12;;;;;;;19.45;15.18;;;21.60;99.90;;;;;;5113859;28;20023;-42
2021/09/12 12:33:39;;;;;;;19.73;14.85;;;21.70;99.90;;;;;;5112648;28;20073;-42
2021/09/12 12:36:09;;;;;;;19.50;14.02;;;21.80;99.90;;;;;;5113057;28;20070;-37
2021/09/12 12:38:39;;;;;;;19.30;15.27;;;21.80;99.90;;;;;;5113846;28;20098;-40
2021/09/12 12:41:07;;;;;;;13.38;11.63;;;21.80;99.90;;;;;;5111153;28;20035;-41